Time;durP1;ratioP1;P1;durP2;ratioP2;P2;SDS_P1;SDS_P2;PMS_P1;PMS_P2;Temp;Humidity;BMP_temperature;BMP_pressure;BME280_temperature;BME280_humidity;BME280_pressure;Samples;Min_cycle;Max_cycle;Signal;HPM_P1;HPM_P2
2021/12/05 00:21:44;;;;;;;1.00;0.90;;;;;;;;;;5026068;28;20235;-46
2021/12/05 00:24:14;;;;;;;0.70;0.70;;;;;;;;;;5025794;28;20229;-46
2021/12/05 00:26:41;;;;;;;1.00;0.68;;;;;;;;;;5036532;28;20728;-46
2021/12/05 00:37:43;;;;;;;0.98;0.85;;;;;;;;;;5028677;28;20543;-46
2021/12/05 00:56:00;;;;;;;0.63;0.60;;;;;;;;;;5033743;28;20254;-46
2021/12/05 01:03:51;;;;;;;0.70;0.70;;;;;;;;;;5032749;28;20208;-46
2021/12/05 01:09:25;;;;;;;0.68;0.57;;;;;;;;;;5035240;28;20199;-46
2021/12/05 01:17:28;;;;;;;0.82;0.82;;;;;;;;;;5034444;28;20241;-46
2021/12/05 01:19:55;;;;;;;0.70;0.60;;;;;;;;;;5029640;28;20289;-46
2021/12/05 01:22:23;;;;;;;0.50;0.50;;;;;;;;;;5023262;28;20197;-46
2021/12/05 01:27:27;;;;;;;1.10;0.68;;;;;;;;;;5032165;28;20198;-45
2021/12/05 01:30:01;;;;;;;1.65;0.60;;;;;;;;;;5035070;28;20190;-46
2021/12/05 01:43:12;;;;;;;0.85;0.63;;;;;;;;;;5027333;28;20215;-46
2021/12/05 01:46:43;;;;;;;0.68;0.65;;;;;;;;;;5033022;28;20281;-46
2021/12/05 02:10:58;;;;;;;0.45;0.45;;;;;;;;;;5010724;28;20743;-46
2021/12/05 02:33:44;;;;;;;0.47;0.47;;;;;;;;;;5022259;28;20199;-46
2021/12/05 02:43:32;;;;;;;0.60;0.60;;;;;;;;;;5029128;28;20215;-46
2021/12/05 02:46:01;;;;;;;0.60;0.60;;;;;;;;;;5024664;28;20215;-46
2021/12/05 02:48:30;;;;;;;0.50;0.50;;;;;;;;;;5030036;28;20259;-46
2021/12/05 02:50:58;;;;;;;0.50;0.50;;;;;;;;;;5031393;28;20207;-46
2021/12/05 02:53:35;;;;;;;0.50;0.50;;;;;;;;;;5028693;28;20175;-46
2021/12/05 02:56:02;;;;;;;0.68;0.68;;;;;;;;;;5031559;28;20203;-46
2021/12/05 02:59:07;;;;;;;0.50;0.50;;;;;;;;;;5031763;28;20222;-46
2021/12/05 03:01:37;;;;;;;0.40;0.40;;;;;;;;;;5027761;28;20219;-46
2021/12/05 03:04:04;;;;;;;0.63;0.55;;;;;;;;;;5028211;28;20830;-46
2021/12/05 03:06:33;;;;;;;0.85;0.50;;;;;;;;;;5024650;28;20207;-46
2021/12/05 03:09:06;;;;;;;0.50;0.50;;;;;;;;;;5021881;28;20215;-46
2021/12/05 03:11:33;;;;;;;0.43;0.43;;;;;;;;;;5030680;28;20282;-46
2021/12/05 03:13:59;;;;;;;0.70;0.40;;;;;;;;;;5026103;28;20195;-46
2021/12/05 03:16:26;;;;;;;0.43;0.43;;;;;;;;;;5028474;28;20214;-46
2021/12/05 03:18:52;;;;;;;0.50;0.50;;;;;;;;;;5027761;28;20680;-46
2021/12/05 03:21:18;;;;;;;0.65;0.50;;;;;;;;;;5018485;28;20207;-46
2021/12/05 03:23:45;;;;;;;1.00;0.50;;;;;;;;;;5022991;28;20211;-46
2021/12/05 03:26:13;;;;;;;0.68;0.60;;;;;;;;;;5026852;28;20267;-46
2021/12/05 03:28:39;;;;;;;1.75;0.50;;;;;;;;;;5026286;28;20188;-46
2021/12/05 03:31:06;;;;;;;0.60;0.60;;;;;;;;;;5018175;28;20184;-46
2021/12/05 03:33:34;;;;;;;0.80;0.60;;;;;;;;;;5032069;28;20428;-47
2021/12/05 03:36:00;;;;;;;0.43;0.43;;;;;;;;;;5032502;28;20462;-46
2021/12/05 03:38:26;;;;;;;0.50;0.43;;;;;;;;;;5031283;28;20187;-46
2021/12/05 03:40:52;;;;;;;0.40;0.40;;;;;;;;;;5019408;28;20275;-46
2021/12/05 03:43:19;;;;;;;0.50;0.50;;;;;;;;;;5032472;28;20211;-46
2021/12/05 03:45:47;;;;;;;0.50;0.50;;;;;;;;;;5025159;28;20234;-46
2021/12/05 03:48:14;;;;;;;0.50;0.50;;;;;;;;;;5028673;28;20180;-46
2021/12/05 03:50:41;;;;;;;2.65;0.43;;;;;;;;;;5030002;28;20491;-46
2021/12/05 03:53:07;;;;;;;0.60;0.60;;;;;;;;;;5029663;28;20466;-46
2021/12/05 03:55:34;;;;;;;0.60;0.60;;;;;;;;;;5024743;28;20175;-46
2021/12/05 03:58:00;;;;;;;0.50;0.50;;;;;;;;;;5029564;28;20249;-46
2021/12/05 04:00:28;;;;;;;0.40;0.40;;;;;;;;;;5026887;28;20262;-46
2021/12/05 04:02:56;;;;;;;0.80;0.40;;;;;;;;;;5029592;28;20586;-46
2021/12/05 04:05:22;;;;;;;1.05;0.63;;;;;;;;;;5027017;28;20475;-46
2021/12/05 04:07:48;;;;;;;0.68;0.40;;;;;;;;;;5032873;28;20603;-46
2021/12/05 04:10:15;;;;;;;0.55;0.52;;;;;;;;;;5031896;28;20595;-46
2021/12/05 04:12:42;;;;;;;0.40;0.40;;;;;;;;;;5031773;28;20227;-46
2021/12/05 04:15:10;;;;;;;0.50;0.50;;;;;;;;;;5032711;28;20226;-46
2021/12/05 04:17:36;;;;;;;0.93;0.50;;;;;;;;;;5032203;28;20759;-46
2021/12/05 04:20:03;;;;;;;0.40;0.40;;;;;;;;;;5023262;28;20216;-46
2021/12/05 04:22:29;;;;;;;0.93;0.52;;;;;;;;;;5027170;28;20212;-45
2021/12/05 04:24:55;;;;;;;0.80;0.40;;;;;;;;;;5033392;28;20171;-46
2021/12/05 04:27:21;;;;;;;0.43;0.40;;;;;;;;;;5033180;28;20556;-46
2021/12/05 04:29:47;;;;;;;0.35;0.35;;;;;;;;;;5035990;28;20193;-46
2021/12/05 04:32:13;;;;;;;1.17;0.50;;;;;;;;;;5032231;28;20184;-46
2021/12/05 04:34:38;;;;;;;0.40;0.40;;;;;;;;;;5028067;28;20590;-46
2021/12/05 04:37:05;;;;;;;0.73;0.50;;;;;;;;;;5035615;28;20275;-46
2021/12/05 04:39:31;;;;;;;0.60;0.50;;;;;;;;;;5036975;28;20184;-46
2021/12/05 04:41:57;;;;;;;1.90;0.68;;;;;;;;;;5028264;28;20247;-46
2021/12/05 04:44:24;;;;;;;0.57;0.55;;;;;;;;;;5033860;28;20258;-46
2021/12/05 04:46:50;;;;;;;0.40;0.40;;;;;;;;;;5031059;28;20176;-46
2021/12/05 04:49:16;;;;;;;0.65;0.45;;;;;;;;;;5030221;28;20172;-46
2021/12/05 04:51:44;;;;;;;0.85;0.70;;;;;;;;;;5034717;28;20214;-46
2021/12/05 04:54:11;;;;;;;0.80;0.70;;;;;;;;;;5031690;28;20495;-46
2021/12/05 04:56:37;;;;;;;0.40;0.40;;;;;;;;;;5034052;28;20281;-46
2021/12/05 04:59:10;;;;;;;0.45;0.45;;;;;;;;;;5035384;28;20190;-46
2021/12/05 05:01:37;;;;;;;0.50;0.50;;;;;;;;;;5032214;28;20199;-46
2021/12/05 05:04:07;;;;;;;0.60;0.60;;;;;;;;;;5035236;28;20645;-46
2021/12/05 05:06:33;;;;;;;0.57;0.57;;;;;;;;;;5031342;28;20226;-46
2021/12/05 05:08:59;;;;;;;0.45;0.45;;;;;;;;;;5025497;28;20188;-46
2021/12/05 05:11:26;;;;;;;0.50;0.50;;;;;;;;;;5028775;28;20198;-46
2021/12/05 05:13:53;;;;;;;0.50;0.50;;;;;;;;;;5035481;28;20207;-46
2021/12/05 05:16:22;;;;;;;0.52;0.52;;;;;;;;;;5034425;28;20582;-46
2021/12/05 05:18:52;;;;;;;0.40;0.40;;;;;;;;;;5027682;28;20188;-46
2021/12/05 05:24:23;;;;;;;0.40;0.40;;;;;;;;;;5021285;28;20219;-46
2021/12/05 05:40:34;;;;;;;0.55;0.30;;;;;;;;;;5021174;28;20617;-46
2021/12/05 05:49:13;;;;;;;0.40;0.40;;;;;;;;;;4996692;28;20273;-46
2021/12/05 05:51:39;;;;;;;0.60;0.50;;;;;;;;;;5040937;28;20459;-46
2021/12/05 05:54:06;;;;;;;0.57;0.57;;;;;;;;;;5028788;28;20186;-46
2021/12/05 05:56:33;;;;;;;2.42;0.70;;;;;;;;;;5030987;28;20564;-46
2021/12/05 05:59:18;;;;;;;2.95;0.60;;;;;;;;;;5027503;28;20283;-46
2021/12/05 06:04:16;;;;;;;2.00;0.70;;;;;;;;;;5033330;28;20558;-46
2021/12/05 06:06:42;;;;;;;2.05;0.50;;;;;;;;;;5033279;28;20262;-46
2021/12/05 06:09:08;;;;;;;2.65;0.70;;;;;;;;;;5025965;28;20259;-46
2021/12/05 06:11:35;;;;;;;0.98;0.68;;;;;;;;;;5025461;28;20233;-46
2021/12/05 06:14:02;;;;;;;0.93;0.60;;;;;;;;;;5034778;28;20184;-46
2021/12/05 06:16:28;;;;;;;1.20;0.77;;;;;;;;;;5031874;28;20191;-46
2021/12/05 06:18:54;;;;;;;0.75;0.55;;;;;;;;;;5031495;28;20547;-46
2021/12/05 06:21:21;;;;;;;1.77;0.60;;;;;;;;;;5025935;28;20189;-46
2021/12/05 06:23:47;;;;;;;1.00;0.80;;;;;;;;;;5028958;28;20204;-46
2021/12/05 06:26:20;;;;;;;0.73;0.50;;;;;;;;;;5026002;28;20198;-46
2021/12/05 06:28:56;;;;;;;0.80;0.65;;;;;;;;;;5034319;28;20188;-46
2021/12/05 06:38:08;;;;;;;0.90;0.65;;;;;;;;;;5031508;28;20590;-46
2021/12/05 06:47:45;;;;;;;0.60;0.57;;;;;;;;;;5028493;28;20191;-46
2021/12/05 06:50:11;;;;;;;1.88;0.75;;;;;;;;;;5021466;28;20187;-46
2021/12/05 06:52:37;;;;;;;1.15;0.73;;;;;;;;;;5032645;28;20187;-46
2021/12/05 06:55:04;;;;;;;0.93;0.73;;;;;;;;;;5027664;28;20191;-46
2021/12/05 06:57:30;;;;;;;2.10;0.90;;;;;;;;;;5031550;28;20205;-46
2021/12/05 06:59:56;;;;;;;1.05;0.80;;;;;;;;;;5027279;28;20180;-46
2021/12/05 07:02:23;;;;;;;1.45;0.57;;;;;;;;;;5025532;28;20195;-46
2021/12/05 07:07:24;;;;;;;2.15;0.90;;;;;;;;;;5032349;28;20188;-46
2021/12/05 07:09:51;;;;;;;1.23;0.90;;;;;;;;;;5023072;28;20475;-46
2021/12/05 07:14:58;;;;;;;1.83;0.75;;;;;;;;;;5025800;28;20187;-46
2021/12/05 07:25:11;;;;;;;0.70;0.70;;;;;;;;;;5025378;28;20215;-47
2021/12/05 07:41:25;;;;;;;1.98;0.70;;;;;;;;;;5020586;28;20322;-46
2021/12/05 07:43:51;;;;;;;2.95;0.80;;;;;;;;;;5030627;28;20226;-46
2021/12/05 07:46:18;;;;;;;4.85;0.73;;;;;;;;;;5030097;28;20346;-47
2021/12/05 07:48:46;;;;;;;2.10;0.80;;;;;;;;;;5032484;28;20254;-46
2021/12/05 07:56:46;;;;;;;2.20;0.90;;;;;;;;;;5024523;28;20638;-46
2021/12/05 07:59:28;;;;;;;1.88;0.93;;;;;;;;;;5029314;28;20191;-47
2021/12/05 08:16:04;;;;;;;2.20;1.20;;;;;;;;;;5020385;28;20199;-46
2021/12/05 08:18:27;;;;;;;4.13;1.00;;;;;;;;;;5030660;28;20691;-46
2021/12/05 08:20:54;;;;;;;2.60;0.82;;;;;;;;;;5031880;28;20184;-44
2021/12/05 08:23:22;;;;;;;1.95;1.23;;;;;;;;;;5027781;28;20212;-46
2021/12/05 08:25:55;;;;;;;3.42;1.85;;;;;;;;;;5018827;28;20176;-46
2021/12/05 08:31:02;;;;;;;4.20;1.80;;;;;;;;;;5023512;28;20191;-45
2021/12/05 08:36:32;;;;;;;3.33;1.67;;;;;;;;;;5024828;28;20199;-46
2021/12/05 08:42:19;;;;;;;5.68;1.70;;;;;;;;;;5019866;28;20217;-48
2021/12/05 09:31:20;;;;;;;4.18;1.95;;;;;;;;;;5031695;28;20348;-49
2021/12/05 10:07:05;;;;;;;2.53;1.10;;;;;;;;;;5028609;28;20186;-44
2021/12/05 10:15:15;;;;;;;4.72;1.70;;;;;;;;;;5028930;28;20184;-43
2021/12/05 10:18:19;;;;;;;2.60;1.10;;;;;;;;;;5026076;28;20793;-49
2021/12/05 10:26:39;;;;;;;4.50;1.70;;;;;;;;;;5034031;28;20191;-47
2021/12/05 10:37:36;;;;;;;4.78;1.20;;;;;;;;;;5023405;28;20196;-47
2021/12/05 10:40:05;;;;;;;3.70;1.05;;;;;;;;;;5028473;28;20200;-47
2021/12/05 10:42:41;;;;;;;5.15;1.35;;;;;;;;;;5030851;28;20642;-48
2021/12/05 10:45:08;;;;;;;4.70;1.23;;;;;;;;;;5031210;28;20194;-48
2021/12/05 10:47:38;;;;;;;4.05;1.10;;;;;;;;;;5033510;28;20255;-45
2021/12/05 10:50:23;;;;;;;2.78;1.20;;;;;;;;;;5029833;28;20181;-45
2021/12/05 10:53:09;;;;;;;3.50;1.30;;;;;;;;;;5027133;28;20198;-45
2021/12/05 10:55:35;;;;;;;2.38;0.98;;;;;;;;;;5033586;28;20187;-45
2021/12/05 10:58:05;;;;;;;4.47;1.23;;;;;;;;;;5027457;28;20193;-48
2021/12/05 11:00:32;;;;;;;4.68;1.20;;;;;;;;;;5030118;28;20191;-47
2021/12/05 11:03:14;;;;;;;4.07;1.55;;;;;;;;;;5026686;28;20208;-51
2021/12/05 11:05:41;;;;;;;3.88;1.60;;;;;;;;;;5033390;28;20180;-52
2021/12/05 11:08:27;;;;;;;6.07;1.75;;;;;;;;;;5029873;28;20183;-48
2021/12/05 11:11:13;;;;;;;6.45;1.77;;;;;;;;;;5023008;28;20203;-43
2021/12/05 11:13:40;;;;;;;7.28;1.80;;;;;;;;;;5020924;28;20206;-44
2021/12/05 11:16:25;;;;;;;3.58;1.50;;;;;;;;;;5033588;28;20219;-48
2021/12/05 11:18:51;;;;;;;5.30;1.80;;;;;;;;;;5029926;28;20184;-48
2021/12/05 11:21:30;;;;;;;5.10;1.30;;;;;;;;;;5031417;28;20587;-47
2021/12/05 11:24:10;;;;;;;5.43;1.40;;;;;;;;;;5020419;28;20199;-48
2021/12/05 11:26:36;;;;;;;8.63;1.60;;;;;;;;;;5032229;28;20206;-48
2021/12/05 11:29:02;;;;;;;2.20;1.10;;;;;;;;;;5031375;28;20548;-48
2021/12/05 11:31:29;;;;;;;4.55;1.40;;;;;;;;;;5023871;28;20499;-43
2021/12/05 11:33:56;;;;;;;7.80;1.58;;;;;;;;;;5024309;28;20241;-46
2021/12/05 11:36:30;;;;;;;6.93;1.42;;;;;;;;;;5031629;28;20198;-45
2021/12/05 11:38:56;;;;;;;8.55;1.40;;;;;;;;;;5025792;28;20214;-45
2021/12/05 11:41:23;;;;;;;5.22;1.30;;;;;;;;;;5027962;28;20188;-48
2021/12/05 11:43:54;;;;;;;6.57;1.50;;;;;;;;;;5030150;28;20214;-48
2021/12/05 11:46:32;;;;;;;6.43;1.50;;;;;;;;;;5031099;28;20218;-49
2021/12/05 11:49:02;;;;;;;6.18;1.33;;;;;;;;;;5032992;28;20229;-48
2021/12/05 11:51:31;;;;;;;3.65;1.20;;;;;;;;;;5032458;28;20184;-46
2021/12/05 11:53:57;;;;;;;6.55;1.20;;;;;;;;;;5029941;28;20184;-47
2021/12/05 11:56:37;;;;;;;7.72;1.58;;;;;;;;;;5026240;28;20263;-43
2021/12/05 11:59:22;;;;;;;7.78;1.30;;;;;;;;;;5029269;28;20219;-45
2021/12/05 12:01:51;;;;;;;6.75;1.20;;;;;;;;;;5027605;28;20203;-44
2021/12/05 12:04:21;;;;;;;6.30;1.50;;;;;;;;;;5026705;28;20215;-44
2021/12/05 12:07:04;;;;;;;11.23;1.90;;;;;;;;;;5032695;28;20187;-44
2021/12/05 12:09:31;;;;;;;4.80;1.60;;;;;;;;;;5028138;28;20176;-44
2021/12/05 12:11:57;;;;;;;8.20;1.80;;;;;;;;;;5021632;28;20567;-44
2021/12/05 12:14:23;;;;;;;3.25;1.38;;;;;;;;;;5027477;28;20306;-44
2021/12/05 12:16:51;;;;;;;5.18;1.48;;;;;;;;;;5021011;28;20210;-44
2021/12/05 12:19:21;;;;;;;8.32;1.65;;;;;;;;;;5018929;28;20176;-44
2021/12/05 12:21:48;;;;;;;5.03;1.70;;;;;;;;;;5032981;28;20195;-49
2021/12/05 12:24:17;;;;;;;4.32;1.30;;;;;;;;;;5033916;28;20203;-45
2021/12/05 12:26:43;;;;;;;5.72;1.50;;;;;;;;;;5035427;28;20207;-49
2021/12/05 12:29:11;;;;;;;5.45;1.65;;;;;;;;;;5029276;28;20215;-46
2021/12/05 12:31:38;;;;;;;6.13;1.23;;;;;;;;;;5033602;28;20183;-44
2021/12/05 12:34:06;;;;;;;6.00;1.40;;;;;;;;;;5020371;28;20246;-46
2021/12/05 12:36:33;;;;;;;2.80;1.63;;;;;;;;;;5028149;28;20183;-47
2021/12/05 12:39:04;;;;;;;3.83;1.60;;;;;;;;;;5036183;28;20211;-46
2021/12/05 12:41:31;;;;;;;3.05;1.40;;;;;;;;;;5022708;28;20200;-46
2021/12/05 12:43:59;;;;;;;5.93;1.75;;;;;;;;;;5028027;28;20223;-43
2021/12/05 12:46:25;;;;;;;5.63;1.67;;;;;;;;;;5036310;28;20247;-47
2021/12/05 12:48:53;;;;;;;3.97;1.48;;;;;;;;;;5033023;28;20487;-43
2021/12/05 12:51:27;;;;;;;3.88;1.38;;;;;;;;;;5031834;28;20830;-44
2021/12/05 12:53:57;;;;;;;2.72;1.38;;;;;;;;;;5033573;28;20199;-46
2021/12/05 12:56:24;;;;;;;6.00;1.30;;;;;;;;;;5031909;28;20180;-46
2021/12/05 12:58:57;;;;;;;7.18;1.52;;;;;;;;;;5032884;28;20223;-46
2021/12/05 13:04:29;;;;;;;2.92;1.17;;;;;;;;;;5030313;28;20200;-45
2021/12/05 13:12:48;;;;;;;4.07;1.10;;;;;;;;;;5022916;28;20207;-47
2021/12/05 13:15:17;;;;;;;2.65;1.00;;;;;;;;;;5028795;28;20287;-46
2021/12/05 13:17:45;;;;;;;2.17;1.40;;;;;;;;;;5031624;28;20607;-44
2021/12/05 13:20:13;;;;;;;7.05;2.50;;;;;;;;;;5033243;28;20270;-41
2021/12/05 13:22:58;;;;;;;7.07;2.20;;;;;;;;;;5031486;28;20180;-46
2021/12/05 13:25:24;;;;;;;9.10;4.15;;;;;;;;;;5034095;28;20184;-45
2021/12/05 13:27:50;;;;;;;9.90;7.07;;;;;;;;;;5034131;28;20287;-45
2021/12/05 13:30:35;;;;;;;18.05;8.70;;;;;;;;;;5035081;28;20179;-44
2021/12/05 13:33:21;;;;;;;22.45;9.57;;;;;;;;;;5029451;28;20215;-44
2021/12/05 13:35:48;;;;;;;19.15;6.70;;;;;;;;;;5031407;28;20211;-47
2021/12/05 13:38:33;;;;;;;15.75;6.55;;;;;;;;;;5038762;28;20179;-49
2021/12/05 13:41:19;;;;;;;12.48;5.57;;;;;;;;;;5033505;28;20192;-49
2021/12/05 13:43:58;;;;;;;12.98;4.40;;;;;;;;;;5029410;28;20214;-48
2021/12/05 13:46:34;;;;;;;13.05;4.15;;;;;;;;;;5032274;28;20179;-49
2021/12/05 13:49:01;;;;;;;8.45;4.03;;;;;;;;;;5035228;28;20179;-49
2021/12/05 13:51:28;;;;;;;10.77;4.43;;;;;;;;;;5032720;28;20199;-48
2021/12/05 13:53:59;;;;;;;5.35;3.33;;;;;;;;;;5029823;28;20184;-48
2021/12/05 13:56:26;;;;;;;9.27;3.88;;;;;;;;;;5031256;28;20191;-49
2021/12/05 13:59:13;;;;;;;9.13;3.58;;;;;;;;;;5033424;28;20203;-48
2021/12/05 14:01:53;;;;;;;7.57;2.92;;;;;;;;;;5026179;28;20187;-49
2021/12/05 14:04:21;;;;;;;5.25;3.10;;;;;;;;;;5031389;28;20251;-49
2021/12/05 14:06:53;;;;;;;6.53;2.72;;;;;;;;;;5031610;28;20168;-49
2021/12/05 14:09:27;;;;;;;6.97;2.80;;;;;;;;;;5031159;28;20180;-49
2021/12/05 14:12:11;;;;;;;6.82;2.97;;;;;;;;;;5032903;28;20502;-49
2021/12/05 14:14:51;;;;;;;8.25;2.70;;;;;;;;;;5021031;28;20207;-49
2021/12/05 14:17:19;;;;;;;5.00;2.45;;;;;;;;;;5029518;28;20184;-49
2021/12/05 14:19:47;;;;;;;5.38;2.65;;;;;;;;;;5034410;28;20188;-49
2021/12/05 14:22:14;;;;;;;4.55;2.40;;;;;;;;;;5032221;28;20453;-49
2021/12/05 14:24:43;;;;;;;5.47;2.80;;;;;;;;;;5028413;28;20242;-48
2021/12/05 14:27:10;;;;;;;5.05;2.58;;;;;;;;;;5034905;28;20555;-48
2021/12/05 14:29:40;;;;;;;8.35;2.80;;;;;;;;;;5033814;28;20183;-49
2021/12/05 14:32:14;;;;;;;5.65;2.15;;;;;;;;;;5034016;28;20549;-48
2021/12/05 14:34:40;;;;;;;6.20;2.60;;;;;;;;;;5029603;28;20179;-48
2021/12/05 14:37:09;;;;;;;6.07;2.78;;;;;;;;;;5030085;28;20264;-49
2021/12/05 14:39:40;;;;;;;4.10;2.50;;;;;;;;;;5028623;28;20249;-49
2021/12/05 14:42:08;;;;;;;4.18;2.28;;;;;;;;;;5031433;28;20318;-49
2021/12/05 14:44:34;;;;;;;5.45;2.65;;;;;;;;;;5028588;28;20219;-49
2021/12/05 14:47:03;;;;;;;3.92;2.40;;;;;;;;;;5025297;28;20173;-49
2021/12/05 14:49:30;;;;;;;6.25;2.80;;;;;;;;;;5028321;28;20197;-49
2021/12/05 14:51:56;;;;;;;4.60;2.67;;;;;;;;;;5030261;28;20230;-49
2021/12/05 14:54:28;;;;;;;5.72;2.85;;;;;;;;;;5025974;28;20183;-48
2021/12/05 14:56:55;;;;;;;10.15;2.80;;;;;;;;;;5028676;28;20757;-50
2021/12/05 14:59:21;;;;;;;7.80;2.33;;;;;;;;;;5030217;28;20199;-49
2021/12/05 15:01:49;;;;;;;8.27;2.42;;;;;;;;;;5029935;28;20246;-49
2021/12/05 15:04:18;;;;;;;2.90;2.13;;;;;;;;;;5028651;28;20204;-49
2021/12/05 15:06:45;;;;;;;4.22;2.55;;;;;;;;;;5026543;28;20203;-50
2021/12/05 15:09:20;;;;;;;4.20;2.17;;;;;;;;;;5027805;28;20184;-49
2021/12/05 15:11:54;;;;;;;5.53;2.85;;;;;;;;;;5030411;28;20225;-49
2021/12/05 15:14:20;;;;;;;3.72;2.30;;;;;;;;;;5031198;28;20225;-49
2021/12/05 15:17:00;;;;;;;4.53;2.10;;;;;;;;;;5027985;28;20460;-49
2021/12/05 15:19:27;;;;;;;3.22;2.30;;;;;;;;;;5031703;28;20188;-49
2021/12/05 15:21:53;;;;;;;4.82;2.17;;;;;;;;;;5031213;28;20187;-49
2021/12/05 15:24:21;;;;;;;5.53;2.50;;;;;;;;;;5025897;28;20234;-49
2021/12/05 15:26:47;;;;;;;3.95;2.55;;;;;;;;;;5026044;28;20490;-49
2021/12/05 15:29:14;;;;;;;4.28;2.50;;;;;;;;;;5027904;28;20566;-49
2021/12/05 15:31:42;;;;;;;4.15;2.42;;;;;;;;;;5022734;28;20446;-49
2021/12/05 15:34:25;;;;;;;4.10;2.40;;;;;;;;;;5029835;28;20180;-49
2021/12/05 15:36:51;;;;;;;4.40;2.22;;;;;;;;;;5022788;28;20216;-49
2021/12/05 15:39:21;;;;;;;6.22;2.28;;;;;;;;;;5028842;28;20192;-48
2021/12/05 15:41:50;;;;;;;5.47;2.13;;;;;;;;;;5030197;28;20235;-49
2021/12/05 15:44:34;;;;;;;4.80;2.33;;;;;;;;;;5022817;28;20232;-49
2021/12/05 15:47:05;;;;;;;4.97;2.40;;;;;;;;;;5027516;28;20207;-48
2021/12/05 15:49:41;;;;;;;4.78;2.30;;;;;;;;;;5023245;28;20245;-48
2021/12/05 15:52:07;;;;;;;9.07;2.85;;;;;;;;;;5020980;28;20176;-49
2021/12/05 15:54:34;;;;;;;4.85;2.63;;;;;;;;;;5018991;28;20181;-49
2021/12/05 15:57:13;;;;;;;3.13;2.70;;;;;;;;;;5031351;28;20183;-49
2021/12/05 15:59:42;;;;;;;3.95;2.33;;;;;;;;;;5025778;28;20222;-48
2021/12/05 16:02:10;;;;;;;5.38;2.50;;;;;;;;;;5031821;28;20843;-49
2021/12/05 16:04:38;;;;;;;3.20;2.00;;;;;;;;;;5024026;28;20212;-49
2021/12/05 16:07:08;;;;;;;3.85;2.63;;;;;;;;;;5026511;28;20194;-49
2021/12/05 16:09:35;;;;;;;3.92;2.15;;;;;;;;;;5023871;28;20200;-48
2021/12/05 16:12:09;;;;;;;5.78;2.15;;;;;;;;;;5025612;28;20203;-49
2021/12/05 16:14:36;;;;;;;4.80;2.85;;;;;;;;;;5029849;28;20257;-49
2021/12/05 16:17:12;;;;;;;4.32;2.42;;;;;;;;;;5030841;28;20218;-49
2021/12/05 16:19:38;;;;;;;5.05;2.47;;;;;;;;;;5027459;28;20294;-49
2021/12/05 16:22:04;;;;;;;4.10;2.55;;;;;;;;;;5030877;28;20270;-49
2021/12/05 16:24:30;;;;;;;4.30;2.40;;;;;;;;;;5032075;28;20568;-48
2021/12/05 16:27:04;;;;;;;5.63;2.65;;;;;;;;;;5024876;28;20263;-49
2021/12/05 16:29:30;;;;;;;7.03;2.90;;;;;;;;;;5024747;28;20188;-49
2021/12/05 16:31:57;;;;;;;3.80;2.70;;;;;;;;;;5029995;28;20176;-49
2021/12/05 16:34:25;;;;;;;6.15;2.85;;;;;;;;;;5030295;28;20172;-49
2021/12/05 16:36:52;;;;;;;4.57;2.72;;;;;;;;;;5024469;28;20226;-49
2021/12/05 16:39:23;;;;;;;7.20;2.80;;;;;;;;;;5029571;28;20195;-49
2021/12/05 16:41:54;;;;;;;5.43;2.40;;;;;;;;;;5025965;28;20251;-49
2021/12/05 16:44:22;;;;;;;2.65;2.13;;;;;;;;;;5032053;28;20207;-48
2021/12/05 16:46:59;;;;;;;5.90;2.80;;;;;;;;;;5030603;28;20270;-49
2021/12/05 16:49:36;;;;;;;3.58;2.30;;;;;;;;;;5026444;28;20930;-49
2021/12/05 16:52:04;;;;;;;3.75;2.88;;;;;;;;;;5031438;28;20201;-49
2021/12/05 16:54:36;;;;;;;3.72;2.55;;;;;;;;;;5030927;28;20211;-48
2021/12/05 16:57:13;;;;;;;4.72;3.05;;;;;;;;;;5026359;28;20180;-49
2021/12/05 16:59:41;;;;;;;5.35;3.63;;;;;;;;;;5027503;28;20298;-49
2021/12/05 17:02:19;;;;;;;6.78;3.50;;;;;;;;;;5031581;28;20198;-49
2021/12/05 17:04:49;;;;;;;7.15;3.05;;;;;;;;;;5026730;28;20616;-48
2021/12/05 17:07:35;;;;;;;5.60;3.25;;;;;;;;;;5034439;28;20271;-49
2021/12/05 17:10:03;;;;;;;4.60;3.22;;;;;;;;;;5031608;28;20295;-49
2021/12/05 17:12:35;;;;;;;5.72;3.60;;;;;;;;;;5034524;28;20202;-48
2021/12/05 17:15:13;;;;;;;5.28;3.88;;;;;;;;;;5017208;28;20586;-49
2021/12/05 17:17:40;;;;;;;5.97;3.40;;;;;;;;;;5034962;28;20187;-48
2021/12/05 17:20:18;;;;;;;5.93;3.50;;;;;;;;;;5029775;28;20181;-51
2021/12/05 17:23:10;;;;;;;6.32;3.33;;;;;;;;;;5025879;28;20191;-48
2021/12/05 17:25:36;;;;;;;4.57;2.90;;;;;;;;;;5024250;28;20196;-48
2021/12/05 17:28:04;;;;;;;6.45;3.20;;;;;;;;;;5029841;28;20199;-49
2021/12/05 17:30:30;;;;;;;5.25;3.38;;;;;;;;;;5031805;28;20210;-48
2021/12/05 17:32:56;;;;;;;5.97;3.45;;;;;;;;;;5033365;28;20176;-49
2021/12/05 17:35:24;;;;;;;3.50;3.20;;;;;;;;;;5033120;28;20180;-48
2021/12/05 17:37:50;;;;;;;4.85;3.50;;;;;;;;;;5026845;28;20188;-48
2021/12/05 17:40:17;;;;;;;5.00;3.58;;;;;;;;;;5030567;28;20499;-49
2021/12/05 17:42:43;;;;;;;4.82;3.05;;;;;;;;;;5031452;28;20263;-49
2021/12/05 17:45:10;;;;;;;5.68;3.28;;;;;;;;;;5030313;28;20180;-48
2021/12/05 17:47:36;;;;;;;4.60;3.47;;;;;;;;;;5028193;28;20187;-49
2021/12/05 17:50:06;;;;;;;6.18;3.60;;;;;;;;;;5029499;28;20507;-49
2021/12/05 17:52:32;;;;;;;3.67;3.15;;;;;;;;;;5033806;28;20194;-48
2021/12/05 17:57:52;;;;;;;4.07;3.65;;;;;;;;;;5034757;28;20621;-49
2021/12/05 18:00:22;;;;;;;6.35;3.50;;;;;;;;;;5033375;28;20190;-49
2021/12/05 18:02:53;;;;;;;4.75;3.70;;;;;;;;;;5034943;28;20183;-49
2021/12/05 18:05:24;;;;;;;4.15;3.35;;;;;;;;;;5028672;28;20428;-48
2021/12/05 18:07:52;;;;;;;5.63;3.55;;;;;;;;;;5032369;28;20237;-49
2021/12/05 18:10:20;;;;;;;4.18;3.45;;;;;;;;;;5033597;28;20172;-49
2021/12/05 18:12:47;;;;;;;5.22;3.63;;;;;;;;;;5033943;28;20183;-49
2021/12/05 18:15:18;;;;;;;4.32;3.90;;;;;;;;;;5032391;28;20263;-49
2021/12/05 18:17:45;;;;;;;5.75;3.90;;;;;;;;;;5027329;28;20429;-49
2021/12/05 18:20:12;;;;;;;5.13;3.80;;;;;;;;;;5029926;28;20191;-49
2021/12/05 18:22:40;;;;;;;4.47;3.58;;;;;;;;;;5023275;28;20502;-49
2021/12/05 18:25:09;;;;;;;5.05;4.15;;;;;;;;;;5030945;28;20235;-49
2021/12/05 18:27:35;;;;;;;5.68;3.97;;;;;;;;;;5030318;28;20172;-49
2021/12/05 18:30:01;;;;;;;5.35;3.97;;;;;;;;;;5031827;28;20235;-49
2021/12/05 18:32:27;;;;;;;4.47;3.90;;;;;;;;;;5034384;28;20211;-49
2021/12/05 18:34:53;;;;;;;4.97;3.95;;;;;;;;;;5029403;28;20881;-49
2021/12/05 18:37:19;;;;;;;5.45;4.25;;;;;;;;;;5030512;28;20266;-49
2021/12/05 18:39:48;;;;;;;6.30;3.83;;;;;;;;;;5031886;28;20575;-49
2021/12/05 18:42:16;;;;;;;5.90;3.97;;;;;;;;;;5031526;28;20574;-49
2021/12/05 18:44:47;;;;;;;5.07;4.00;;;;;;;;;;5032469;28;20514;-49
2021/12/05 18:47:15;;;;;;;4.75;4.00;;;;;;;;;;5033822;28;20223;-49
2021/12/05 18:49:41;;;;;;;6.68;4.68;;;;;;;;;;5033641;28;20175;-49
2021/12/05 18:52:08;;;;;;;6.20;4.97;;;;;;;;;;5029414;28;20190;-49
2021/12/05 18:54:35;;;;;;;7.28;4.80;;;;;;;;;;5027000;28;20184;-49
2021/12/05 18:57:01;;;;;;;6.70;5.20;;;;;;;;;;5025914;28;20297;-49
2021/12/05 18:59:31;;;;;;;6.43;5.28;;;;;;;;;;5034273;28;20176;-49
2021/12/05 19:04:48;;;;;;;5.78;4.63;;;;;;;;;;5020006;28;20234;-49
2021/12/05 19:07:21;;;;;;;6.68;4.85;;;;;;;;;;5030595;28;20474;-49
2021/12/05 19:12:17;;;;;;;6.50;5.10;;;;;;;;;;5026784;28;20187;-49
2021/12/05 19:14:44;;;;;;;7.47;5.07;;;;;;;;;;5024504;28;20211;-49
2021/12/05 19:17:12;;;;;;;6.45;5.30;;;;;;;;;;5030547;28;20598;-50
2021/12/05 19:19:40;;;;;;;5.65;5.10;;;;;;;;;;5020733;28;20184;-49
2021/12/05 19:22:07;;;;;;;5.70;4.50;;;;;;;;;;5022062;28;20747;-49
2021/12/05 19:24:33;;;;;;;6.03;5.15;;;;;;;;;;5032629;28;20221;-50
2021/12/05 19:27:01;;;;;;;5.93;4.88;;;;;;;;;;5032455;28;20459;-49
2021/12/05 19:29:28;;;;;;;5.68;4.80;;;;;;;;;;5032507;28;20179;-49
2021/12/05 19:31:55;;;;;;;6.30;5.00;;;;;;;;;;5031414;28;20180;-49
2021/12/05 19:34:22;;;;;;;7.00;5.03;;;;;;;;;;5029264;28;20179;-49
2021/12/05 19:36:48;;;;;;;8.73;5.30;;;;;;;;;;5026681;28;20462;-49
2021/12/05 19:39:15;;;;;;;6.22;4.72;;;;;;;;;;5029062;28;20180;-49
2021/12/05 19:41:42;;;;;;;6.35;4.65;;;;;;;;;;5029626;28;20192;-49
2021/12/05 19:44:08;;;;;;;6.07;4.95;;;;;;;;;;5018944;28;20286;-49
2021/12/05 19:46:35;;;;;;;5.65;5.13;;;;;;;;;;5033029;28;20443;-50
2021/12/05 19:49:02;;;;;;;10.63;4.90;;;;;;;;;;5025774;28;20474;-50
2021/12/05 19:51:28;;;;;;;7.45;4.95;;;;;;;;;;5020331;28;20184;-50
2021/12/05 19:53:56;;;;;;;6.93;5.22;;;;;;;;;;5029535;28;20191;-49
2021/12/05 19:56:23;;;;;;;6.90;5.07;;;;;;;;;;5030850;28;20246;-50
2021/12/05 19:58:49;;;;;;;8.02;5.15;;;;;;;;;;5031796;28;20294;-49
2021/12/05 20:01:15;;;;;;;8.60;4.85;;;;;;;;;;5030607;28;20563;-50
2021/12/05 20:03:42;;;;;;;7.70;5.10;;;;;;;;;;5028748;28;20290;-49
2021/12/05 20:06:13;;;;;;;5.15;4.63;;;;;;;;;;5030957;28;20180;-49
2021/12/05 20:08:43;;;;;;;8.68;4.80;;;;;;;;;;5028412;28;20620;-48
2021/12/05 20:11:09;;;;;;;8.10;5.03;;;;;;;;;;5027136;28;20181;-49
2021/12/05 20:13:36;;;;;;;7.68;4.75;;;;;;;;;;5029448;28;20187;-48
2021/12/05 20:16:02;;;;;;;6.20;5.00;;;;;;;;;;5023763;28;20200;-48
2021/12/05 20:18:30;;;;;;;7.63;4.93;;;;;;;;;;5028627;28;20218;-50
2021/12/05 20:20:57;;;;;;;6.88;5.30;;;;;;;;;;5023081;28;20180;-49
2021/12/05 20:23:23;;;;;;;6.13;4.80;;;;;;;;;;5028528;28;20209;-48
2021/12/05 20:25:50;;;;;;;6.25;5.05;;;;;;;;;;5027428;28;20183;-49
2021/12/05 20:28:16;;;;;;;7.03;5.50;;;;;;;;;;5030805;28;20215;-48
2021/12/05 20:30:42;;;;;;;6.25;5.13;;;;;;;;;;5024510;28;21814;-48